Time;durP1;ratioP1;P1;durP2;ratioP2;P2;SDS_P1;SDS_P2;PMS_P1;PMS_P2;Temp;Humidity;BMP_temperature;BMP_pressure;BME280_temperature;BME280_humidity;BME280_pressure;Samples;Min_cycle;Max_cycle;Signal;HPM_P1;HPM_P2
2023/09/15 00:01:46;;;;;;;3.40;1.92;;;;;;;;;;4999839;28;20054;-59
2023/09/15 00:04:39;;;;;;;4.15;1.63;;;;;;;;;;5001643;28;20046;-65
2023/09/15 00:07:27;;;;;;;7.75;1.90;;;;;;;;;;4999982;28;20060;-65
2023/09/15 00:10:21;;;;;;;5.85;2.35;;;;;;;;;;5000337;28;20510;-65
2023/09/15 00:13:08;;;;;;;7.95;2.15;;;;;;;;;;4995871;28;20061;-65
2023/09/15 00:16:09;;;;;;;6.70;2.38;;;;;;;;;;4982781;28;20053;-66
2023/09/15 00:18:56;;;;;;;3.13;2.20;;;;;;;;;;4975204;28;20054;-65
2023/09/15 00:21:50;;;;;;;5.88;2.15;;;;;;;;;;4984032;28;20046;-65
2023/09/15 00:24:37;;;;;;;3.67;1.98;;;;;;;;;;4983796;28;20061;-65
2023/09/15 00:27:31;;;;;;;10.25;2.70;;;;;;;;;;4983333;28;20503;-59
2023/09/15 00:30:19;;;;;;;7.53;2.45;;;;;;;;;;4981695;28;20050;-60
2023/09/15 00:33:12;;;;;;;5.03;2.13;;;;;;;;;;4982252;28;20053;-60
2023/09/15 00:36:06;;;;;;;7.22;2.05;;;;;;;;;;4980644;28;20054;-60
2023/09/15 00:38:54;;;;;;;4.40;2.40;;;;;;;;;;4984790;28;20050;-59
2023/09/15 00:41:47;;;;;;;8.43;2.35;;;;;;;;;;4984499;28;20885;-49
2023/09/15 00:44:35;;;;;;;4.60;2.50;;;;;;;;;;4980075;28;20564;-48
2023/09/15 00:47:28;;;;;;;5.20;1.95;;;;;;;;;;4980684;28;20050;-49
2023/09/15 00:50:17;;;;;;;4.05;2.10;;;;;;;;;;4977861;28;20141;-50
2023/09/15 00:53:14;;;;;;;5.68;1.88;;;;;;;;;;4979599;28;20078;-61
2023/09/15 00:56:01;;;;;;;9.38;2.47;;;;;;;;;;4982136;28;20157;-48
2023/09/15 00:58:56;;;;;;;7.90;2.55;;;;;;;;;;4973076;28;20066;-48
2023/09/15 01:01:43;;;;;;;4.63;2.20;;;;;;;;;;4973208;28;20141;-47
2023/09/15 01:04:37;;;;;;;9.68;2.47;;;;;;;;;;4981167;28;20057;-46
2023/09/15 01:07:24;;;;;;;6.72;2.00;;;;;;;;;;4980890;28;20529;-47
2023/09/15 01:10:19;;;;;;;9.70;2.90;;;;;;;;;;4978090;28;20132;-59
2023/09/15 01:13:05;;;;;;;7.20;2.58;;;;;;;;;;4981896;28;20511;-60
2023/09/15 01:16:14;;;;;;;7.45;2.13;;;;;;;;;;4995381;28;20104;-60
2023/09/15 01:19:09;;;;;;;6.40;2.30;;;;;;;;;;5000352;28;20722;-58
2023/09/15 01:22:16;;;;;;;5.60;2.70;;;;;;;;;;4991411;28;20050;-60
2023/09/15 01:25:22;;;;;;;9.00;2.80;;;;;;;;;;5003351;28;20050;-60
2023/09/15 01:28:22;;;;;;;7.95;2.20;;;;;;;;;;5005827;28;20058;-66
2023/09/15 01:31:09;;;;;;;7.80;2.75;;;;;;;;;;5004865;28;20046;-50
2023/09/15 01:34:03;;;;;;;5.03;2.47;;;;;;;;;;5007573;28;20057;-50
2023/09/15 01:36:53;;;;;;;9.27;2.90;;;;;;;;;;5003432;28;20049;-48
2023/09/15 01:39:44;;;;;;;8.50;2.55;;;;;;;;;;5002716;28;20050;-48
2023/09/15 01:42:31;;;;;;;10.02;3.30;;;;;;;;;;5003687;28;20049;-49
2023/09/15 01:45:25;;;;;;;6.88;3.03;;;;;;;;;;5001584;28;20060;-49
2023/09/15 01:48:12;;;;;;;8.02;3.25;;;;;;;;;;5003072;28;20125;-60
2023/09/15 01:51:07;;;;;;;8.32;3.17;;;;;;;;;;5004194;28;20092;-49
2023/09/15 01:54:02;;;;;;;9.93;3.22;;;;;;;;;;5005602;28;20053;-49
2023/09/15 01:56:49;;;;;;;8.88;3.28;;;;;;;;;;5006041;28;20061;-51
2023/09/15 01:59:42;;;;;;;5.72;2.95;;;;;;;;;;4999102;28;20593;-52
2023/09/15 02:02:30;;;;;;;6.00;2.90;;;;;;;;;;5004558;28;20548;-53
2023/09/15 02:05:24;;;;;;;11.70;3.13;;;;;;;;;;5001646;28;20636;-63
2023/09/15 02:08:11;;;;;;;8.85;3.05;;;;;;;;;;5001541;28;20606;-65
2023/09/15 02:11:06;;;;;;;10.38;3.25;;;;;;;;;;5000747;28;20050;-65
2023/09/15 02:13:59;;;;;;;14.05;3.47;;;;;;;;;;5002309;28;20050;-65
2023/09/15 02:16:59;;;;;;;9.93;2.60;;;;;;;;;;4984240;28;20063;-60
2023/09/15 02:19:53;;;;;;;6.13;2.58;;;;;;;;;;4983660;28;20053;-66
2023/09/15 02:22:41;;;;;;;5.13;3.05;;;;;;;;;;4982521;28;20061;-66
2023/09/15 02:25:35;;;;;;;7.28;3.83;;;;;;;;;;4982428;28;20065;-65
2023/09/15 02:28:23;;;;;;;5.45;2.97;;;;;;;;;;4983860;28;20109;-66
2023/09/15 02:31:17;;;;;;;6.00;2.80;;;;;;;;;;4982895;28;20054;-66
2023/09/15 02:34:04;;;;;;;10.18;3.22;;;;;;;;;;4984653;28;20093;-66
2023/09/15 02:36:57;;;;;;;10.20;2.78;;;;;;;;;;4982269;28;20108;-66
2023/09/15 02:39:45;;;;;;;10.90;3.85;;;;;;;;;;4982710;28;20569;-65
2023/09/15 02:42:39;;;;;;;9.30;3.15;;;;;;;;;;4981917;28;20054;-66
2023/09/15 02:45:26;;;;;;;9.30;3.05;;;;;;;;;;4983525;28;20058;-59
2023/09/15 02:48:19;;;;;;;12.65;3.30;;;;;;;;;;4984354;28;20511;-60
2023/09/15 02:51:14;;;;;;;10.20;3.70;;;;;;;;;;4984351;28;20061;-60
2023/09/15 02:54:03;;;;;;;12.02;3.38;;;;;;;;;;4984581;28;20054;-59
2023/09/15 02:56:54;;;;;;;9.43;3.50;;;;;;;;;;4983316;28;20056;-60
2023/09/15 02:59:50;;;;;;;9.35;3.47;;;;;;;;;;4983462;28;20046;-59
2023/09/15 03:02:44;;;;;;;7.88;3.30;;;;;;;;;;4983713;28;20108;-57
2023/09/15 03:05:30;;;;;;;7.93;3.50;;;;;;;;;;4981973;28;20072;-58
2023/09/15 03:08:24;;;;;;;6.45;2.95;;;;;;;;;;4978103;28;21675;-58
2023/09/15 03:11:13;;;;;;;7.55;3.38;;;;;;;;;;4978116;28;20057;-66
2023/09/15 03:14:09;;;;;;;7.18;3.15;;;;;;;;;;4982870;28;20050;-49
2023/09/15 03:17:00;;;;;;;12.20;3.45;;;;;;;;;;5001717;28;20418;-65
2023/09/15 03:19:55;;;;;;;9.32;3.40;;;;;;;;;;5000558;28;20131;-66
2023/09/15 03:22:43;;;;;;;10.90;3.30;;;;;;;;;;5003262;28;20346;-66
2023/09/15 03:25:36;;;;;;;7.43;3.05;;;;;;;;;;5001962;28;20049;-66
2023/09/15 03:28:24;;;;;;;14.00;3.88;;;;;;;;;;5004017;28;20096;-65
2023/09/15 03:31:18;;;;;;;6.72;3.53;;;;;;;;;;5001851;28;20053;-59
2023/09/15 03:34:05;;;;;;;11.00;4.32;;;;;;;;;;5003283;28;20054;-60
2023/09/15 03:37:01;;;;;;;12.70;4.32;;;;;;;;;;5001794;28;20065;-60
2023/09/15 03:39:54;;;;;;;13.43;4.20;;;;;;;;;;5000460;28;20103;-59
2023/09/15 03:42:48;;;;;;;15.13;3.83;;;;;;;;;;4997933;28;20141;-51
2023/09/15 03:45:35;;;;;;;9.82;4.18;;;;;;;;;;4999741;28;20063;-60
2023/09/15 03:48:29;;;;;;;10.75;4.18;;;;;;;;;;5000295;28;20140;-61
2023/09/15 03:51:17;;;;;;;13.85;4.97;;;;;;;;;;5003166;28;20061;-60
2023/09/15 03:54:11;;;;;;;16.40;4.72;;;;;;;;;;5002015;28;20136;-62
2023/09/15 03:56:58;;;;;;;14.93;4.90;;;;;;;;;;5000558;28;20547;-62
2023/09/15 03:59:52;;;;;;;17.85;4.93;;;;;;;;;;4999609;28;20047;-66
2023/09/15 04:02:39;;;;;;;8.05;4.47;;;;;;;;;;4998330;28;20525;-58
2023/09/15 04:05:14;;;;;;;11.10;4.43;;;;;;;;;;4998336;28;20176;-59
2023/09/15 04:07:49;;;;;;;16.02;4.28;;;;;;;;;;5001313;28;20057;-58
2023/09/15 04:10:42;;;;;;;16.05;4.85;;;;;;;;;;4996441;28;20061;-59
2023/09/15 04:13:37;;;;;;;12.05;4.47;;;;;;;;;;4986138;28;20050;-59
2023/09/15 04:16:30;;;;;;;11.40;4.97;;;;;;;;;;4999229;28;20057;-61
2023/09/15 04:19:24;;;;;;;8.88;4.03;;;;;;;;;;4999772;28;20053;-59
2023/09/15 04:22:11;;;;;;;12.32;5.10;;;;;;;;;;5002411;28;20103;-65
2023/09/15 04:25:05;;;;;;;8.45;4.05;;;;;;;;;;5003575;28;20184;-66
2023/09/15 04:27:52;;;;;;;16.60;5.22;;;;;;;;;;4982195;28;20043;-65
2023/09/15 04:30:47;;;;;;;10.65;4.50;;;;;;;;;;4993926;28;20059;-66
2023/09/15 04:33:34;;;;;;;11.43;4.40;;;;;;;;;;4996745;28;20066;-65
2023/09/15 04:36:27;;;;;;;13.50;4.32;;;;;;;;;;5005744;28;20054;-49
2023/09/15 04:39:22;;;;;;;20.63;5.70;;;;;;;;;;5001057;28;20694;-66
2023/09/15 04:42:12;;;;;;;12.57;4.60;;;;;;;;;;4987561;28;20074;-66
2023/09/15 04:45:06;;;;;;;12.45;5.10;;;;;;;;;;4996785;28;20104;-66
2023/09/15 04:47:53;;;;;;;13.30;4.82;;;;;;;;;;4996619;28;20103;-65
2023/09/15 04:50:46;;;;;;;10.13;5.00;;;;;;;;;;4997662;28;20120;-65
2023/09/15 04:53:34;;;;;;;13.75;5.72;;;;;;;;;;4999830;28;21072;-59
2023/09/15 04:56:27;;;;;;;13.63;4.82;;;;;;;;;;4994552;28;20467;-60
2023/09/15 04:59:18;;;;;;;6.63;4.30;;;;;;;;;;4982541;28;20455;-61
2023/09/15 05:02:13;;;;;;;14.98;4.95;;;;;;;;;;4992299;28;20525;-61
2023/09/15 05:04:59;;;;;;;7.80;4.15;;;;;;;;;;4985346;28;20049;-61
2023/09/15 05:07:53;;;;;;;12.00;4.05;;;;;;;;;;4988050;28;20585;-61
2023/09/15 05:10:40;;;;;;;14.82;4.85;;;;;;;;;;4968837;28;20113;-61
2023/09/15 05:13:14;;;;;;;14.52;5.05;;;;;;;;;;4984381;28;21410;-62
2023/09/15 05:15:47;;;;;;;;;;;;;;;;;;4992977;28;20078;-52
2023/09/15 05:18:22;;;;;;;10.68;3.72;;;;;;;;;;4992897;28;19926;-49
2023/09/15 05:20:49;;;;;;;12.52;4.82;;;;;;;;;;4999584;28;20057;-47
2023/09/15 05:23:16;;;;;;;12.73;4.68;;;;;;;;;;5004204;28;20195;-49
2023/09/15 05:25:53;;;;;;;12.40;4.90;;;;;;;;;;5005538;28;20145;-48
2023/09/15 05:28:20;;;;;;;14.10;4.40;;;;;;;;;;5004629;28;20050;-51
2023/09/15 05:31:01;;;;;;;17.33;5.97;;;;;;;;;;5001626;28;20057;-52
2023/09/15 05:33:29;;;;;;;11.02;4.70;;;;;;;;;;5009129;28;20490;-49
2023/09/15 05:36:23;;;;;;;9.25;4.40;;;;;;;;;;5004529;28;20108;-49
2023/09/15 05:39:10;;;;;;;19.92;4.93;;;;;;;;;;5002771;28;20065;-51
2023/09/15 05:42:04;;;;;;;15.60;4.68;;;;;;;;;;5001481;28;20453;-61
2023/09/15 05:44:54;;;;;;;12.55;4.50;;;;;;;;;;5002893;28;20520;-64
2023/09/15 05:47:45;;;;;;;15.82;4.38;;;;;;;;;;5000227;28;20046;-63
2023/09/15 05:50:32;;;;;;;14.10;4.95;;;;;;;;;;5003033;28;20060;-64
2023/09/15 05:53:26;;;;;;;11.38;4.60;;;;;;;;;;5000464;28;20066;-64
2023/09/15 05:56:13;;;;;;;12.85;4.65;;;;;;;;;;4998222;28;20150;-64
2023/09/15 05:59:08;;;;;;;11.82;4.35;;;;;;;;;;5003246;28;20124;-63
2023/09/15 06:01:56;;;;;;;13.05;4.03;;;;;;;;;;5006673;28;20050;-64
2023/09/15 06:04:50;;;;;;;16.75;4.13;;;;;;;;;;4999400;28;20054;-63
2023/09/15 06:07:42;;;;;;;15.55;4.47;;;;;;;;;;5003130;28;20049;-64
2023/09/15 06:10:39;;;;;;;8.13;3.40;;;;;;;;;;4996769;28;20081;-64
2023/09/15 06:13:24;;;;;;;10.57;3.55;;;;;;;;;;5003996;28;20057;-63
2023/09/15 06:16:24;;;;;;;12.27;4.45;;;;;;;;;;4991756;28;20061;-64
2023/09/15 06:19:12;;;;;;;16.33;4.60;;;;;;;;;;4991437;28;20042;-64
2023/09/15 06:22:06;;;;;;;16.70;4.07;;;;;;;;;;4989263;28;20054;-64
2023/09/15 06:24:54;;;;;;;6.38;3.55;;;;;;;;;;4991106;28;20052;-65
2023/09/15 06:27:47;;;;;;;10.70;4.25;;;;;;;;;;4989311;28;20046;-49
2023/09/15 06:30:47;;;;;;;13.50;4.30;;;;;;;;;;4986719;28;20430;-53
2023/09/15 06:33:41;;;;;;;12.50;4.10;;;;;;;;;;4980235;28;20058;-50
2023/09/15 06:36:28;;;;;;;12.00;4.57;;;;;;;;;;4987517;28;20058;-49
2023/09/15 06:39:23;;;;;;;11.82;4.20;;;;;;;;;;4985768;28;20057;-54
2023/09/15 06:42:10;;;;;;;10.82;4.28;;;;;;;;;;4984437;28;20423;-64
2023/09/15 06:45:03;;;;;;;8.65;3.70;;;;;;;;;;4986695;28;20042;-65
2023/09/15 06:47:50;;;;;;;19.88;3.97;;;;;;;;;;4988516;28;20050;-65
2023/09/15 06:50:45;;;;;;;13.80;4.10;;;;;;;;;;4984683;28;20050;-65
2023/09/15 06:53:31;;;;;;;14.52;4.68;;;;;;;;;;4990097;28;20046;-65
2023/09/15 06:56:26;;;;;;;12.35;4.22;;;;;;;;;;4986688;28;20053;-49
2023/09/15 06:59:12;;;;;;;12.27;4.18;;;;;;;;;;4985493;28;20087;-51
2023/09/15 07:02:08;;;;;;;13.68;4.22;;;;;;;;;;4989484;28;20109;-51
2023/09/15 07:04:55;;;;;;;9.02;3.92;;;;;;;;;;4991061;28;20421;-50
2023/09/15 07:07:49;;;;;;;12.10;3.88;;;;;;;;;;4981596;28;20057;-63
2023/09/15 07:10:36;;;;;;;8.77;3.83;;;;;;;;;;4985779;28;20173;-53
2023/09/15 07:13:30;;;;;;;10.63;3.70;;;;;;;;;;4986449;28;20063;-52
2023/09/15 07:16:30;;;;;;;12.30;3.80;;;;;;;;;;4996637;28;20068;-50
2023/09/15 07:19:18;;;;;;;11.65;4.10;;;;;;;;;;4992191;28;20046;-47
2023/09/15 07:22:11;;;;;;;13.30;4.50;;;;;;;;;;5001758;28;20062;-53
2023/09/15 07:24:59;;;;;;;16.08;4.30;;;;;;;;;;5005441;28;20064;-64
2023/09/15 07:27:53;;;;;;;13.43;4.03;;;;;;;;;;5007677;28;20054;-64
2023/09/15 07:30:41;;;;;;;15.00;3.85;;;;;;;;;;5004757;28;20714;-64
2023/09/15 07:33:34;;;;;;;18.67;4.60;;;;;;;;;;5006033;28;20058;-64
2023/09/15 07:36:23;;;;;;;14.52;3.95;;;;;;;;;;4999079;28;20127;-59
2023/09/15 07:39:15;;;;;;;8.57;3.85;;;;;;;;;;4996584;28;20196;-63
2023/09/15 07:42:07;;;;;;;9.82;3.97;;;;;;;;;;4998937;28;20077;-63
2023/09/15 07:44:57;;;;;;;13.57;3.95;;;;;;;;;;5001345;28;20050;-63
2023/09/15 07:47:44;;;;;;;10.27;4.20;;;;;;;;;;4999129;28;20054;-63
2023/09/15 07:50:37;;;;;;;12.77;4.20;;;;;;;;;;5002281;28;20057;-63
2023/09/15 07:53:32;;;;;;;10.05;4.05;;;;;;;;;;5002629;28;20054;-64
2023/09/15 07:56:21;;;;;;;7.07;3.53;;;;;;;;;;5000201;28;20052;-65
2023/09/15 07:59:14;;;;;;;9.77;3.90;;;;;;;;;;5002890;28;20058;-64
2023/09/15 08:02:07;;;;;;;11.68;3.60;;;;;;;;;;4995731;28;20042;-65
2023/09/15 08:05:01;;;;;;;13.85;4.22;;;;;;;;;;4997724;28;20341;-49
2023/09/15 08:07:49;;;;;;;11.15;3.70;;;;;;;;;;4997312;28;20065;-49
2023/09/15 08:10:45;;;;;;;8.93;3.22;;;;;;;;;;5001666;28;20068;-52
2023/09/15 08:13:30;;;;;;;12.27;4.00;;;;;;;;;;4995683;28;20077;-52
2023/09/15 08:16:30;;;;;;;8.00;3.72;;;;;;;;;;5000032;28;20059;-48
2023/09/15 08:19:24;;;;;;;9.32;3.35;;;;;;;;;;5001529;28;20049;-48
2023/09/15 08:22:18;;;;;;;12.55;3.97;;;;;;;;;;5002508;28;20559;-60
2023/09/15 08:25:11;;;;;;;8.60;3.45;;;;;;;;;;5007210;28;20623;-60
2023/09/15 08:28:01;;;;;;;9.38;3.65;;;;;;;;;;5002501;28;20057;-61
2023/09/15 08:30:53;;;;;;;12.82;3.47;;;;;;;;;;5000704;28;20061;-61
2023/09/15 08:33:40;;;;;;;9.52;3.78;;;;;;;;;;4999593;28;20637;-63
2023/09/15 08:36:34;;;;;;;9.68;3.40;;;;;;;;;;4999591;28;20054;-64
2023/09/15 08:39:21;;;;;;;10.75;3.70;;;;;;;;;;4992994;28;20060;-64
2023/09/15 08:42:18;;;;;;;9.50;4.07;;;;;;;;;;4997936;28;20062;-65
2023/09/15 08:45:14;;;;;;;6.40;3.70;;;;;;;;;;4994317;28;20077;-64
2023/09/15 08:48:09;;;;;;;9.30;3.50;;;;;;;;;;5000708;28;20058;-64
2023/09/15 08:51:03;;;;;;;13.25;4.72;;;;;;;;;;5001080;28;20124;-62
2023/09/15 08:53:56;;;;;;;11.57;4.10;;;;;;;;;;4996218;28;20049;-62
2023/09/15 08:56:51;;;;;;;12.55;4.53;;;;;;;;;;4980156;28;20049;-62
2023/09/15 08:59:39;;;;;;;8.43;3.90;;;;;;;;;;4998378;28;20421;-62
2023/09/15 09:02:33;;;;;;;10.40;3.60;;;;;;;;;;5000136;28;20058;-62
2023/09/15 09:05:22;;;;;;;14.20;4.68;;;;;;;;;;5001397;28;20077;-62
2023/09/15 09:08:19;;;;;;;8.40;3.90;;;;;;;;;;4999545;28;20564;-62
2023/09/15 09:11:06;;;;;;;8.73;4.53;;;;;;;;;;5003104;28;20127;-62
2023/09/15 09:14:00;;;;;;;12.93;4.72;;;;;;;;;;4995140;28;20061;-61
2023/09/15 09:16:53;;;;;;;12.82;4.80;;;;;;;;;;4994808;28;20081;-64
2023/09/15 09:19:49;;;;;;;15.15;5.35;;;;;;;;;;5004932;28;20116;-63
2023/09/15 09:22:35;;;;;;;13.10;4.78;;;;;;;;;;5004257;28;20050;-62
2023/09/15 09:25:30;;;;;;;9.23;4.88;;;;;;;;;;5003727;28;20136;-62
2023/09/15 09:28:16;;;;;;;9.07;4.75;;;;;;;;;;5004557;28;20041;-60
2023/09/15 09:31:10;;;;;;;10.18;4.65;;;;;;;;;;5002543;28;20050;-62
2023/09/15 09:33:58;;;;;;;9.30;4.32;;;;;;;;;;5001269;28;20072;-62
2023/09/15 09:37:12;;;;;;;8.38;4.55;;;;;;;;;;5000957;28;20050;-62
2023/09/15 09:39:59;;;;;;;18.33;4.70;;;;;;;;;;4999725;28;20048;-62
2023/09/15 09:42:54;;;;;;;10.95;4.40;;;;;;;;;;4994997;28;20131;-62
2023/09/15 09:45:40;;;;;;;8.18;4.43;;;;;;;;;;4995988;28;20454;-62
2023/09/15 09:48:34;;;;;;;11.90;4.60;;;;;;;;;;5001308;28;20061;-51
2023/09/15 09:51:23;;;;;;;10.20;5.00;;;;;;;;;;4991914;28;20073;-49
2023/09/15 09:54:16;;;;;;;15.25;5.57;;;;;;;;;;4991111;28;20100;-53
2023/09/15 09:57:03;;;;;;;10.50;4.28;;;;;;;;;;4988878;28;20057;-65
2023/09/15 09:59:57;;;;;;;12.30;5.00;;;;;;;;;;5002599;28;20505;-52
2023/09/15 10:02:51;;;;;;;13.68;4.35;;;;;;;;;;5002498;28;20089;-50
2023/09/15 10:05:45;;;;;;;7.20;4.45;;;;;;;;;;5005428;28;20049;-51
2023/09/15 10:08:45;;;;;;;14.15;5.10;;;;;;;;;;4999918;28;20561;-53
2023/09/15 10:11:30;;;;;;;8.60;4.28;;;;;;;;;;5001816;28;20064;-51
2023/09/15 10:14:24;;;;;;;18.10;5.10;;;;;;;;;;5005546;28;20511;-49
2023/09/15 10:17:18;;;;;;;11.63;5.15;;;;;;;;;;5003843;28;20054;-60
2023/09/15 10:20:12;;;;;;;7.57;4.80;;;;;;;;;;5005836;28;20524;-59
2023/09/15 10:23:00;;;;;;;8.48;4.40;;;;;;;;;;5004577;28;20078;-59
2023/09/15 10:25:54;;;;;;;13.32;4.63;;;;;;;;;;5002549;28;20227;-52
2023/09/15 10:28:47;;;;;;;11.10;4.28;;;;;;;;;;5003431;28;20058;-60
2023/09/15 10:31:37;;;;;;;9.85;4.57;;;;;;;;;;5003234;28;20053;-59
2023/09/15 10:34:24;;;;;;;16.65;4.72;;;;;;;;;;5005738;28;20506;-59
2023/09/15 10:37:20;;;;;;;8.23;4.20;;;;;;;;;;5008154;28;20045;-60
2023/09/15 10:40:07;;;;;;;10.05;3.95;;;;;;;;;;5003875;28;20468;-59
2023/09/15 10:43:07;;;;;;;16.48;4.63;;;;;;;;;;5001404;28;20061;-63
2023/09/15 10:45:58;;;;;;;12.70;3.65;;;;;;;;;;5004605;28;20050;-63
2023/09/15 10:48:52;;;;;;;10.32;3.92;;;;;;;;;;5005919;28;20057;-63
2023/09/15 10:51:50;;;;;;;12.68;4.57;;;;;;;;;;5001638;28;20096;-63
2023/09/15 10:54:44;;;;;;;9.20;3.58;;;;;;;;;;5002077;28;20077;-63
2023/09/15 10:57:36;;;;;;;9.82;3.30;;;;;;;;;;5001262;28;20057;-60
2023/09/15 11:00:30;;;;;;;10.07;3.90;;;;;;;;;;4999358;28;20108;-60
2023/09/15 11:03:17;;;;;;;11.70;3.65;;;;;;;;;;5002626;28;20053;-61
2023/09/15 11:06:12;;;;;;;10.48;3.67;;;;;;;;;;5004472;28;20420;-60
2023/09/15 11:09:01;;;;;;;6.30;3.38;;;;;;;;;;5001030;28;20053;-60
2023/09/15 11:11:55;;;;;;;13.25;3.90;;;;;;;;;;4999970;28;20063;-50
2023/09/15 11:14:42;;;;;;;9.32;3.20;;;;;;;;;;5000855;28;20046;-50
2023/09/15 11:17:43;;;;;;;10.27;3.22;;;;;;;;;;4999703;28;20053;-51
2023/09/15 11:20:30;;;;;;;11.57;3.78;;;;;;;;;;5002530;28;20050;-51
2023/09/15 11:23:25;;;;;;;6.45;3.72;;;;;;;;;;4996934;28;20055;-60
2023/09/15 11:26:12;;;;;;;15.07;2.95;;;;;;;;;;5002554;28;20157;-65
2023/09/15 11:29:07;;;;;;;11.35;3.35;;;;;;;;;;4998565;28;20101;-64
2023/09/15 11:31:55;;;;;;;7.47;3.30;;;;;;;;;;5000925;28;22293;-66
2023/09/15 11:34:49;;;;;;;8.70;4.15;;;;;;;;;;5003327;28;20112;-65
2023/09/15 11:37:37;;;;;;;5.88;3.13;;;;;;;;;;5001537;28;20124;-65
2023/09/15 11:40:33;;;;;;;8.50;2.75;;;;;;;;;;5010315;28;20127;-59
2023/09/15 11:43:22;;;;;;;8.07;2.85;;;;;;;;;;5002435;28;20073;-59
2023/09/15 11:46:15;;;;;;;16.40;3.25;;;;;;;;;;5002251;28;20135;-59
2023/09/15 11:49:03;;;;;;;13.40;2.80;;;;;;;;;;5000182;28;20340;-59
2023/09/15 11:51:57;;;;;;;11.63;3.22;;;;;;;;;;5002468;28;20054;-62
2023/09/15 11:54:45;;;;;;;5.57;2.20;;;;;;;;;;5000520;28;20506;-59
2023/09/15 11:57:38;;;;;;;11.88;2.72;;;;;;;;;;4994907;28;20303;-59
2023/09/15 12:00:30;;;;;;;5.95;2.30;;;;;;;;;;5000049;28;20501;-60
2023/09/15 12:03:26;;;;;;;6.53;2.37;;;;;;;;;;5001406;28;20115;-60
2023/09/15 12:06:12;;;;;;;11.25;2.92;;;;;;;;;;5000280;28;20557;-59
2023/09/15 12:09:06;;;;;;;8.13;2.58;;;;;;;;;;5001899;28;20045;-63
2023/09/15 12:11:53;;;;;;;4.95;2.53;;;;;;;;;;5002011;28;20522;-64
2023/09/15 12:14:47;;;;;;;10.13;2.20;;;;;;;;;;5000180;28;20549;-63
2023/09/15 12:17:42;;;;;;;12.50;2.63;;;;;;;;;;5004845;28;20423;-67
2023/09/15 12:20:36;;;;;;;10.80;2.53;;;;;;;;;;4997314;28;20049;-63
2023/09/15 12:23:27;;;;;;;7.07;2.70;;;;;;;;;;5003400;28;20058;-52
2023/09/15 12:26:24;;;;;;;9.00;2.40;;;;;;;;;;5001945;28;20453;-49
2023/09/15 12:29:12;;;;;;;12.68;2.78;;;;;;;;;;4999673;28;20054;-51
2023/09/15 12:32:07;;;;;;;7.35;2.30;;;;;;;;;;5000041;28;20089;-48
2023/09/15 12:34:54;;;;;;;8.77;2.45;;;;;;;;;;5004188;28;20593;-50
2023/09/15 12:37:53;;;;;;;7.50;2.33;;;;;;;;;;4998760;28;20045;-51
2023/09/15 12:40:38;;;;;;;6.47;2.53;;;;;;;;;;5002598;28;20108;-48
2023/09/15 12:43:33;;;;;;;5.50;1.90;;;;;;;;;;5003403;28;20108;-52
2023/09/15 12:46:20;;;;;;;4.70;2.00;;;;;;;;;;5000837;28;20084;-52
2023/09/15 12:49:14;;;;;;;8.25;2.30;;;;;;;;;;4998682;28;20051;-59
2023/09/15 12:52:02;;;;;;;7.90;2.27;;;;;;;;;;4997687;28;20457;-59
2023/09/15 12:54:57;;;;;;;6.22;2.20;;;;;;;;;;5001377;28;20058;-59
2023/09/15 12:57:43;;;;;;;7.93;2.10;;;;;;;;;;4998132;28;20056;-59
2023/09/15 13:00:37;;;;;;;5.13;1.88;;;;;;;;;;5003355;28;20112;-59
2023/09/15 13:03:24;;;;;;;10.20;2.60;;;;;;;;;;5000108;28;20069;-59
2023/09/15 13:06:18;;;;;;;7.32;2.03;;;;;;;;;;4999326;28;20058;-53
2023/09/15 13:09:05;;;;;;;7.10;2.08;;;;;;;;;;5002880;28;20054;-51
2023/09/15 13:12:00;;;;;;;5.63;2.13;;;;;;;;;;5002054;28;20054;-53
2023/09/15 13:14:48;;;;;;;6.45;1.77;;;;;;;;;;5004617;28;20520;-52
2023/09/15 13:17:52;;;;;;;4.70;1.85;;;;;;;;;;5000194;28;20264;-51
2023/09/15 13:20:39;;;;;;;5.93;2.25;;;;;;;;;;5002140;28;20492;-64
2023/09/15 13:23:34;;;;;;;9.38;2.33;;;;;;;;;;4999719;28;20367;-64
2023/09/15 13:26:20;;;;;;;7.32;2.40;;;;;;;;;;5001828;28;20062;-64
2023/09/15 13:29:14;;;;;;;8.60;2.10;;;;;;;;;;5001236;28;20151;-64
2023/09/15 13:32:01;;;;;;;5.30;2.10;;;;;;;;;;5006888;28;20054;-64
2023/09/15 13:34:55;;;;;;;7.47;2.10;;;;;;;;;;5000007;28;20109;-64
2023/09/15 13:37:49;;;;;;;7.18;2.15;;;;;;;;;;5004848;28;20053;-64
2023/09/15 13:40:43;;;;;;;8.15;2.33;;;;;;;;;;5001640;28;20073;-65
2023/09/15 13:43:30;;;;;;;8.30;2.28;;;;;;;;;;4999245;28;20057;-64
2023/09/15 13:46:24;;;;;;;7.75;2.15;;;;;;;;;;5001052;28;20647;-61
2023/09/15 13:49:11;;;;;;;8.63;1.80;;;;;;;;;;5001638;28;20046;-58
2023/09/15 13:52:05;;;;;;;6.78;1.80;;;;;;;;;;5000020;28;20751;-59
2023/09/15 13:54:52;;;;;;;6.95;1.60;;;;;;;;;;5000776;28;20077;-58
2023/09/15 13:57:46;;;;;;;7.55;1.95;;;;;;;;;;5000708;28;20093;-58
2023/09/15 14:00:33;;;;;;;9.15;2.17;;;;;;;;;;4995407;28;20054;-59
2023/09/15 14:03:27;;;;;;;7.25;1.83;;;;;;;;;;4999416;28;20046;-60
2023/09/15 14:06:16;;;;;;;4.68;1.63;;;;;;;;;;5002743;28;20076;-60
2023/09/15 14:09:09;;;;;;;10.43;2.22;;;;;;;;;;5002158;28;20124;-60
2023/09/15 14:12:03;;;;;;;4.70;1.80;;;;;;;;;;4995403;28;20068;-61
2023/09/15 14:14:57;;;;;;;6.38;1.65;;;;;;;;;;4996235;28;20106;-58
2023/09/15 14:17:50;;;;;;;4.00;1.83;;;;;;;;;;4999996;28;20057;-58
2023/09/15 14:20:25;;;;;;;5.43;1.92;;;;;;;;;;4999634;28;20054;-57
2023/09/15 14:23:19;;;;;;;4.45;1.50;;;;;;;;;;5000802;28;20058;-58
2023/09/15 14:26:13;;;;;;;9.10;2.25;;;;;;;;;;5007587;28;20042;-58
2023/09/15 14:29:00;;;;;;;7.03;2.03;;;;;;;;;;5000962;28;20065;-59
2023/09/15 14:31:54;;;;;;;5.07;1.63;;;;;;;;;;4997978;28;20500;-68
2023/09/15 14:34:42;;;;;;;7.18;2.00;;;;;;;;;;4983117;28;21190;-64
2023/09/15 14:37:36;;;;;;;5.90;1.73;;;;;;;;;;4981049;28;20534;-64
2023/09/15 14:40:23;;;;;;;5.32;1.40;;;;;;;;;;4986114;28;20152;-64
2023/09/15 14:43:16;;;;;;;5.65;1.73;;;;;;;;;;4986058;28;20517;-64
2023/09/15 14:46:11;;;;;;;7.65;1.60;;;;;;;;;;5000359;28;20061;-64
2023/09/15 14:49:05;;;;;;;3.33;1.23;;;;;;;;;;4995552;28;20526;-58
2023/09/15 14:51:59;;;;;;;6.18;2.00;;;;;;;;;;4994673;28;20936;-52
2023/09/15 14:54:52;;;;;;;5.78;1.85;;;;;;;;;;4998239;28;20053;-53
2023/09/15 14:57:40;;;;;;;7.57;1.95;;;;;;;;;;4999208;28;20054;-51
2023/09/15 15:00:34;;;;;;;5.80;1.73;;;;;;;;;;5000333;28;20058;-48
2023/09/15 15:03:21;;;;;;;3.08;1.58;;;;;;;;;;5003920;28;20057;-50
2023/09/15 15:06:18;;;;;;;7.72;1.92;;;;;;;;;;5002348;28;20052;-53
2023/09/15 15:09:13;;;;;;;6.93;1.73;;;;;;;;;;5003194;28;20045;-58
2023/09/15 15:12:06;;;;;;;6.28;2.40;;;;;;;;;;4995932;28;20081;-58
2023/09/15 15:14:53;;;;;;;5.30;2.10;;;;;;;;;;5001300;28;20137;-58
2023/09/15 15:18:00;;;;;;;8.07;1.90;;;;;;;;;;4990547;28;20089;-58
2023/09/15 15:20:54;;;;;;;7.70;2.38;;;;;;;;;;4986409;28;20061;-66
2023/09/15 15:23:48;;;;;;;6.18;1.95;;;;;;;;;;4984550;28;20050;-66
2023/09/15 15:26:36;;;;;;;8.25;2.40;;;;;;;;;;4986629;28;20109;-66
2023/09/15 15:29:30;;;;;;;9.35;2.20;;;;;;;;;;4989460;28;20065;-66
2023/09/15 15:32:19;;;;;;;9.60;2.13;;;;;;;;;;4988151;28;20504;-66
2023/09/15 15:35:11;;;;;;;6.72;2.05;;;;;;;;;;4985099;28;20570;-67
2023/09/15 15:37:59;;;;;;;7.07;2.08;;;;;;;;;;4987543;28;20057;-58
2023/09/15 15:40:53;;;;;;;5.65;2.40;;;;;;;;;;4987763;28;20043;-58
2023/09/15 15:43:47;;;;;;;6.47;2.20;;;;;;;;;;4983885;28;20058;-58
2023/09/15 15:46:34;;;;;;;7.65;2.08;;;;;;;;;;4984287;28;20043;-64
2023/09/15 15:49:30;;;;;;;5.15;2.50;;;;;;;;;;4981982;28;20050;-58
2023/09/15 15:52:15;;;;;;;10.65;2.22;;;;;;;;;;4978801;28;20059;-58
2023/09/15 15:55:09;;;;;;;7.43;1.95;;;;;;;;;;4985042;28;20050;-57
2023/09/15 15:57:56;;;;;;;8.13;2.38;;;;;;;;;;4982538;28;20149;-57
2023/09/15 16:00:30;;;;;;;5.22;2.10;;;;;;;;;;4983986;28;20117;-58
2023/09/15 16:02:57;;;;;;;4.43;1.70;;;;;;;;;;4985667;28;20054;-58
2023/09/15 16:05:25;;;;;;;6.60;2.28;;;;;;;;;;4989277;28;20058;-65
2023/09/15 16:08:19;;;;;;;9.73;2.22;;;;;;;;;;4987443;28;20917;-49
2023/09/15 16:11:13;;;;;;;9.13;1.90;;;;;;;;;;4984896;28;20054;-48
2023/09/15 16:14:07;;;;;;;9.52;2.13;;;;;;;;;;4984921;28;20134;-45
2023/09/15 16:17:00;;;;;;;6.68;1.95;;;;;;;;;;4990211;28;20054;-47
2023/09/15 16:19:42;;;;;;;5.85;1.83;;;;;;;;;;4994530;28;20066;-48
2023/09/15 16:22:29;;;;;;;5.90;2.20;;;;;;;;;;4997481;28;20497;-46
2023/09/15 16:25:23;;;;;;;9.98;2.45;;;;;;;;;;4998099;28;20049;-59
2023/09/15 16:28:11;;;;;;;4.05;2.10;;;;;;;;;;4994355;28;20100;-59
2023/09/15 16:31:05;;;;;;;8.68;2.00;;;;;;;;;;4992908;28;20073;-61
2023/09/15 16:33:52;;;;;;;9.07;1.98;;;;;;;;;;4981967;28;20058;-60
2023/09/15 16:36:47;;;;;;;7.38;2.25;;;;;;;;;;4994534;28;20095;-57
2023/09/15 16:39:40;;;;;;;7.80;2.15;;;;;;;;;;4993273;28;20054;-59
2023/09/15 16:42:27;;;;;;;9.02;2.58;;;;;;;;;;4999447;28;20061;-58
2023/09/15 16:45:22;;;;;;;6.45;2.03;;;;;;;;;;5001097;28;20050;-62
2023/09/15 16:47:54;;;;;;;6.20;2.47;;;;;;;;;;4995815;28;20061;-58
2023/09/15 16:50:48;;;;;;;5.05;2.47;;;;;;;;;;4990376;28;20069;-59
2023/09/15 16:53:35;;;;;;;9.63;2.50;;;;;;;;;;4998027;28;20125;-67
2023/09/15 16:56:29;;;;;;;7.75;2.17;;;;;;;;;;4997106;28;20058;-48
2023/09/15 16:59:16;;;;;;;8.63;2.42;;;;;;;;;;4982458;28;20055;-46